Home > Products > Valid Products > MTR

000
SAUS45 KREV 160456
MTRDRA
METAR KDRA 160452Z AUTO 10003KT 10SM CLR 28/06 A2997 RMK AO2 SLP094
T02780061





000
SAUS45 KREV 160357
MTRDRA
METAR KDRA 160352Z AUTO 12006KT 10SM CLR 30/05 A2996 RMK AO2 SLP090
T03000050





000
SAUS45 KREV 160257
MTRDRA
METAR KDRA 160252Z AUTO 11008KT 10SM CLR 32/05 A2994 RMK AO2 SLP086
T03170050 53005





000
SAUS45 KREV 160157
MTRDRA
METAR KDRA 160152Z AUTO 13007KT 10SM CLR 34/03 A2992 RMK AO2 SLP081
T03440028





000
SAUS45 KREV 160057
MTRDRA
METAR KDRA 160052Z AUTO 27004KT 10SM CLR 36/02 A2992 RMK AO2 SLP079
T03560022





000
SAUS45 KREV 152357
MTRDRA
METAR KDRA 152352Z AUTO 12003KT 10SM CLR 36/02 A2992 RMK AO2 SLP079
T03610022 10378 20339 56016





000
SAUS45 KREV 152257
MTRDRA
METAR KDRA 152252Z AUTO 00000KT 10SM CLR 36/03 A2994 RMK AO2 SLP083
T03610033





000
SAUS45 KREV 152157
MTRDRA
METAR KDRA 152152Z AUTO VRB03KT 10SM CLR 37/03 A2995 RMK AO2 SLP087
T03670033





000
SAUS45 KREV 152057
MTRDRA
METAR KDRA 152052Z AUTO 22006KT 10SM CLR 37/04 A2997 RMK AO2 SLP093
T03670039 58014





000
SAUS45 KREV 151957
MTRDRA
METAR KDRA 151952Z AUTO VRB03KT 10SM CLR 35/03 A2999 RMK AO2 SLP100
T03500033





000
SAUS45 KREV 151857
MTRDRA
METAR KDRA 151852Z AUTO 09004KT 10SM CLR 35/03 A3001 RMK AO2 SLP106
T03500033





000
SAUS45 KREV 151757
MTRDRA
METAR KDRA 151752Z AUTO 14008KT 10SM CLR 34/04 A3002 RMK AO2 SLP109
T03390044 10339 20200 50002





000
SAUS45 KREV 151657
MTRDRA
METAR KDRA 151652Z AUTO 00000KT 10SM CLR 32/05 A3002 RMK AO2 SLP111
T03170050





000
SAUS45 KREV 151557
MTRDRA
METAR KDRA 151552Z AUTO 30003KT 10SM CLR 29/04 A3002 RMK AO2 SLP113
T02890044





000
SAUS45 KREV 151457
MTRDRA
METAR KDRA 151452Z AUTO 00000KT 10SM CLR 24/05 A3001 RMK AO2 SLP113
T02440050 51015





000
SAUS45 KREV 151257
MTRDRA
METAR KDRA 151252Z AUTO 08004KT 10SM CLR 22/05 A2998 RMK AO2 SLP101
T02220050





000
SAUS45 KREV 151157
MTRDRA
METAR KDRA 151152Z AUTO 07004KT 10SM CLR 22/04 A2997 RMK AO2 SLP095
T02220044 10283 20222 53004





000
SAUS45 KREV 151057
MTRDRA
METAR KDRA 151052Z AUTO 09006KT 10SM CLR 23/04 A2995 RMK AO2 SLP090
T02280044





000
SAUS45 KREV 150957
MTRDRA
METAR KDRA 150952Z AUTO 00000KT 10SM CLR 24/04 A2996 RMK AO2 SLP090
T02390039





000
SAUS45 KREV 150857
MTRDRA
METAR KDRA 150852Z AUTO 03005KT 10SM CLR 26/04 A2995 RMK AO2 SLP086
T02560039 51007





000
SAUS45 KREV 150757
MTRDRA
METAR KDRA 150752Z AUTO 04004KT 10SM CLR 27/03 A2994 RMK AO2 SLP083
T02670033 403610183





000
SAUS45 KREV 150657
MTRDRA
METAR KDRA 150652Z AUTO 00000KT 10SM CLR 27/03 A2994 RMK AO2 SLP082
T02670028





000
SAUS45 KREV 150557
MTRDRA
METAR KDRA 150552Z AUTO 02003KT 10SM CLR 27/03 A2993 RMK AO2 SLP081
T02670033 10356 20267 51010





000
SAUS45 KREV 150457
MTRDRA
METAR KDRA 150452Z AUTO 10007KT 10SM CLR 29/04 A2992 RMK AO2 SLP077
T02890039





000
SAUS45 KREV 150357
MTRDRA
METAR KDRA 150352Z AUTO 11005KT 10SM CLR 29/06 A2991 RMK AO2 SLP076
T02940056





000
SAUS45 KREV 150257
MTRDRA
METAR KDRA 150252Z AUTO 12007KT 10SM CLR 31/05 A2989 RMK AO2 SLP072
T03110050 53004





000
SAUS45 KREV 150157
MTRDRA
METAR KDRA 150152Z AUTO 21006KT 10SM CLR 33/03 A2988 RMK AO2 SLP069
T03330028





000
SAUS45 KREV 150057
MTRDRA
METAR KDRA 150052Z AUTO 18006KT 10SM CLR 34/02 A2988 RMK AO2 SLP068
T03440017





000
SAUS45 KREV 142357
MTRDRA
METAR KDRA 142352Z AUTO 25009G15KT 10SM CLR 36/02 A2988 RMK AO2
SLP066 T03560017 10361 20322 56014





000
SAUS45 KREV 142257
MTRDRA
METAR KDRA 142252Z AUTO VRB03KT 10SM CLR 36/02 A2989 RMK AO2 SLP069
T03560017





000
SAUS45 KREV 142157
MTRDRA
METAR KDRA 142152Z AUTO 22010G16KT 10SM CLR 36/02 A2990 RMK AO2
SLP074 T03610022





000
SAUS45 KREV 142057
MTRDRA
METAR KDRA 142052Z AUTO 13007KT 090V170 10SM CLR 36/02 A2992 RMK AO2
SLP081 T03560022 57018





000
SAUS45 KREV 141957
MTRDRA
METAR KDRA 141952Z AUTO 24008KT 10SM CLR 36/03 A2994 RMK AO2 SLP086
T03560028





000
SAUS45 KREV 141857
MTRDRA
METAR KDRA 141852Z AUTO 10SM CLR 34/04 A2996 RMK AO2 SLP093
T03440039





000
SAUS45 KREV 141757
MTRDRA
METAR KDRA 141752Z AUTO VRB04KT 10SM CLR 32/03 A2998 RMK AO2 SLP099
T03220028 10322 20183 50003





000
SAUS45 KREV 141657
MTRDRA
METAR KDRA 141652Z AUTO 00000KT 10SM CLR 30/02 A2999 RMK AO2 SLP102
T03000022





000
SAUS45 KREV 141557
MTRDRA
METAR KDRA 141552Z AUTO VRB03KT 10SM CLR 27/02 A2998 RMK AO2 SLP102
T02670022





000
SAUS45 KREV 141458
MTRDRA
METAR KDRA 141452Z AUTO 00000KT 10SM FEW120 24/03 A2997 RMK AO2
SLP101 T02390028 51015





000
SAUS45 KREV 141257
MTRDRA
METAR KDRA 141252Z AUTO 13003KT 10SM CLR 19/02 A2994 RMK AO2 SLP089
T01890022





000
SAUS45 KREV 141157
MTRDRA
METAR KDRA 141152Z AUTO 02003KT 10SM CLR 21/02 A2992 RMK AO2 SLP081
T02110017 10261 20194 58000





000
SAUS45 KREV 141057
MTRDRA
METAR KDRA 141052Z AUTO 08005KT 10SM CLR 21/01 A2993 RMK AO2 SLP082
T02060011





000
SAUS45 KREV 140957
MTRDRA
METAR KDRA 140952Z AUTO 00000KT 10SM CLR 21/01 A2992 RMK AO2 SLP081
T02060006





000
SAUS45 KREV 140857
MTRDRA
METAR KDRA 140852Z AUTO 36003KT 10SM CLR 21/01 A2992 RMK AO2 SLP081
T02110006 53005





000
SAUS45 KREV 140757
MTRDRA
METAR KDRA 140752Z AUTO 05003KT 10SM CLR 23/00 A2992 RMK AO2 SLP077
T02330000 403670167





000
SAUS45 KREV 140657
MTRDRA
METAR KDRA 140652Z AUTO 00000KT 10SM CLR 22/00 A2991 RMK AO2 SLP078
T02220000





000
SAUS45 KREV 140557
MTRDRA
METAR KDRA 140552Z AUTO VRB03KT 10SM CLR 25/01 A2991 RMK AO2 SLP075
T02500006 10350 20244 52008





000
SAUS45 KREV 140457
MTRDRA
METAR KDRA 140452Z AUTO VRB03KT 10SM CLR 28/01 A2990 RMK AO2 SLP070
T02830006





000
SAUS45 KREV 140357
MTRDRA
METAR KDRA 140352Z AUTO 11008KT 10SM CLR 29/00 A2989 RMK AO2 SLP070
T02890000





000
SAUS45 KREV 140257
MTRDRA
METAR KDRA 140252Z AUTO 11009KT 10SM CLR 29/01 A2988 RMK AO2 SLP072
T02890006 53001





000
SAUS45 KREV 140157
MTRDRA
METAR KDRA 140152Z AUTO 23007KT 10SM CLR 32/M01 A2987 RMK AO2 SLP069
T03171011





000
SAUS45 KREV 140057
MTRDRA
METAR KDRA 140052Z AUTO 21007G16KT 10SM CLR 34/M02 A2987 RMK AO2
SLP068 T03441022





000
SAUS45 KREV 132357
MTRDRA
METAR KDRA 132352Z AUTO 21010KT 10SM CLR 36/M02 A2988 RMK AO2 WSHFT
2300 SLP068 T03561017 10367 20322 56014





000
SAUS45 KREV 132322
MTRDRA
SPECI KDRA 132317Z AUTO 27011G18KT 10SM CLR 36/M02 A2988 RMK AO2
WSHFT 2300 T03561022





000
SAUS45 KREV 132257
MTRDRA
METAR KDRA 132252Z AUTO 21013G22KT 10SM CLR 36/M03 A2989 RMK AO2
SLP069 T03611028





000
SAUS45 KREV 132157
MTRDRA
METAR KDRA 132152Z AUTO 26011G18KT 10SM CLR 36/M02 A2990 RMK AO2
SLP073 T03561022





000
SAUS45 KREV 132057
MTRDRA
METAR KDRA 132052Z AUTO 24009G22KT 10SM CLR 36/M02 A2992 RMK AO2
WSHFT 2027 SLP081 T03561022 58018





000
SAUS45 KREV 132049
MTRDRA
SPECI KDRA 132044Z AUTO 23012G21KT 10SM CLR 35/M03 A2992 RMK AO2
WSHFT 2027 T03501028





000
SAUS45 KREV 131957
MTRDRA
METAR KDRA 131952Z AUTO 27008G14KT 10SM CLR 35/M02 A2994 RMK AO2
SLP087 T03501017





000
SAUS45 KREV 131857
MTRDRA
METAR KDRA 131852Z AUTO 26006KT 10SM CLR 34/M01 A2997 RMK AO2 SLP095
T03391011





000
SAUS45 KREV 131757
MTRDRA
METAR KDRA 131752Z AUTO 00000KT 10SM CLR 32/M01 A2998 RMK AO2 SLP099
T03221011 10328 20167 58003





000
SAUS45 KREV 131657
MTRDRA
METAR KDRA 131652Z AUTO 36003KT 10SM CLR 31/M01 A2999 RMK AO2 SLP103
T03061011





000
SAUS45 KREV 131557
MTRDRA
METAR KDRA 131552Z AUTO 00000KT 10SM CLR 27/M01 A2999 RMK AO2 SLP106
T02671011





000
SAUS45 KREV 131456
MTRDRA
METAR KDRA 131452Z AUTO 00000KT 10SM CLR 22/02 A2999 RMK AO2 SLP109
T02220022 52012





000
SAUS45 KREV 131257
MTRDRA
METAR KDRA 131252Z AUTO 00000KT 10SM CLR 18/01 A2996 RMK AO2 SLP099
T01780006





000
SAUS45 KREV 131156
MTRDRA
METAR KDRA 131152Z AUTO 02005KT 10SM CLR 18/01 A2995 RMK AO2 SLP094
T01830006 10250 20178 53001





000
SAUS45 KREV 131057
MTRDRA
METAR KDRA 131052Z AUTO VRB03KT 10SM CLR 19/M01 A2995 RMK AO2 SLP092
T01941006





000
SAUS45 KREV 130958
MTRDRA
METAR KDRA 130952Z AUTO 00000KT 10SM CLR 20/01 A2995 RMK AO2 SLP090
T02000006





000
SAUS45 KREV 130857
MTRDRA
METAR KDRA 130852Z AUTO 04003KT 10SM CLR 19/01 A2995 RMK AO2 SLP091
T01940006 52001





000
SAUS45 KREV 130757
MTRDRA
METAR KDRA 130752Z AUTO 00000KT 10SM CLR 21/00 A2994 RMK AO2 SLP089
T02110000 403560172





000
SAUS45 KREV 130657
MTRDRA
METAR KDRA 130652Z AUTO 04004KT 10SM CLR 23/00 A2994 RMK AO2 SLP089
T02280000





000
SAUS45 KREV 130557
MTRDRA
METAR KDRA 130552Z AUTO 12007KT 10SM CLR 25/01 A2994 RMK AO2 SLP088
T02500011 10350 20244 51008





    US Dept of Commerce
    National Oceanic and Atmospheric Administration
    National Weather Service
    1325 East West Highway
    Silver Spring, MD 20910
    Page Author: NWS Internet Services Team
Disclaimer
Information Quality
Credits
Glossary
Privacy Policy
Freedom of Information Act (FOIA)
About Us
Career Opportunities